Time;durP1;ratioP1;P1;durP2;ratioP2;P2;SDS_P1;SDS_P2;PMS_P1;PMS_P2;Temp;Humidity;BMP_temperature;BMP_pressure;BME280_temperature;BME280_humidity;BME280_pressure;Samples;Min_cycle;Max_cycle;Signal;HPM_P1;HPM_P2
2022/01/22 00:01:17;;;;;;;0.93;0.52;;;;;;;;;;5035434;28;20117;-71
2022/01/22 00:03:43;;;;;;;2.22;0.60;;;;;;;;;;5035682;28;20488;-71
2022/01/22 00:06:10;;;;;;;1.50;0.55;;;;;;;;;;5017664;28;20052;-64
2022/01/22 00:08:36;;;;;;;1.33;0.60;;;;;;;;;;5035602;28;20037;-63
2022/01/22 00:11:03;;;;;;;2.08;0.63;;;;;;;;;;5034373;28;20029;-66
2022/01/22 00:16:14;;;;;;;2.53;0.55;;;;;;;;;;5035202;28;20056;-70
2022/01/22 00:18:40;;;;;;;14.27;0.60;;;;;;;;;;5017427;28;20049;-71
2022/01/22 00:21:06;;;;;;;7.50;0.95;;;;;;;;;;5034780;28;20063;-64
2022/01/22 00:23:32;;;;;;;1.27;0.55;;;;;;;;;;5035568;28;20440;-70
2022/01/22 00:25:58;;;;;;;4.75;0.80;;;;;;;;;;5034066;28;20041;-70
2022/01/22 00:28:24;;;;;;;1.90;0.60;;;;;;;;;;5033724;28;20095;-61
2022/01/22 00:30:50;;;;;;;5.15;0.68;;;;;;;;;;5035160;28;20109;-67
2022/01/22 00:33:17;;;;;;;13.70;0.88;;;;;;;;;;5034481;28;20060;-62
2022/01/22 00:35:43;;;;;;;1.65;0.50;;;;;;;;;;5035516;28;20056;-78
2022/01/22 00:38:09;;;;;;;3.75;0.70;;;;;;;;;;5016886;28;20029;-67
2022/01/22 00:40:36;;;;;;;4.47;0.90;;;;;;;;;;5017309;28;20403;-72
2022/01/22 00:43:01;;;;;;;1.98;0.55;;;;;;;;;;5033966;28;20500;-77
2022/01/22 00:45:28;;;;;;;22.20;0.82;;;;;;;;;;5034352;28;20496;-76
2022/01/22 00:47:54;;;;;;;8.88;0.70;;;;;;;;;;5034612;28;20384;-73
2022/01/22 00:50:21;;;;;;;1.27;0.60;;;;;;;;;;5034615;28;20473;-60
2022/01/22 00:52:47;;;;;;;2.53;0.70;;;;;;;;;;5016833;28;20387;-63
2022/01/22 00:55:14;;;;;;;1.85;0.60;;;;;;;;;;5034264;28;20057;-60
2022/01/22 00:57:40;;;;;;;1.67;0.50;;;;;;;;;;5017185;28;20070;-62
2022/01/22 01:00:07;;;;;;;4.22;0.70;;;;;;;;;;5034204;28;20096;-65
2022/01/22 01:02:35;;;;;;;2.38;0.65;;;;;;;;;;5034238;28;20041;-66
2022/01/22 01:05:01;;;;;;;1.85;0.52;;;;;;;;;;5034394;28;20468;-61
2022/01/22 01:07:27;;;;;;;2.47;0.68;;;;;;;;;;5034393;28;20358;-66
2022/01/22 01:09:53;;;;;;;4.10;0.40;;;;;;;;;;5034230;28;20032;-63
2022/01/22 01:12:19;;;;;;;4.05;0.82;;;;;;;;;;5033980;28;20029;-73
2022/01/22 01:15:05;;;;;;;2.63;0.70;;;;;;;;;;5033965;28;20115;-73
2022/01/22 01:17:57;;;;;;;4.18;0.60;;;;;;;;;;5016048;28;20053;-60
2022/01/22 01:34:15;;;;;;;2.35;0.50;;;;;;;;;;5026520;28;20128;-62
2022/01/22 01:36:42;;;;;;;16.20;1.00;;;;;;;;;;5033747;28;20380;-75
2022/01/22 01:39:11;;;;;;;1.05;0.50;;;;;;;;;;5034166;28;20045;-64
2022/01/22 01:44:33;;;;;;;5.65;0.70;;;;;;;;;;5020465;28;20068;-68
2022/01/22 01:47:01;;;;;;;5.70;0.50;;;;;;;;;;5033960;28;20029;-60
2022/01/22 01:49:28;;;;;;;2.42;0.70;;;;;;;;;;5028210;28;20026;-60
2022/01/22 01:51:56;;;;;;;1.67;0.50;;;;;;;;;;5033660;28;20021;-68
2022/01/22 01:54:29;;;;;;;2.05;0.60;;;;;;;;;;5033782;28;20034;-67
2022/01/22 01:59:42;;;;;;;2.17;0.80;;;;;;;;;;5033512;28;20028;-60
2022/01/22 02:02:09;;;;;;;2.58;0.50;;;;;;;;;;5033072;28;20527;-77
2022/01/22 02:04:35;;;;;;;3.05;0.50;;;;;;;;;;5032436;28;20040;-61
2022/01/22 02:07:01;;;;;;;1.83;0.60;;;;;;;;;;5033103;28;20025;-61
2022/01/22 02:09:27;;;;;;;2.58;0.70;;;;;;;;;;5015520;28;20033;-69
2022/01/22 02:12:12;;;;;;;2.40;0.50;;;;;;;;;;5033267;28;20021;-59
2022/01/22 02:25:18;;;;;;;2.22;0.60;;;;;;;;;;5013303;28;20391;-59
2022/01/22 02:27:44;;;;;;;1.52;0.60;;;;;;;;;;5014142;28;20389;-75
2022/01/22 02:30:18;;;;;;;1.48;0.50;;;;;;;;;;5032598;28;20033;-61
2022/01/22 02:35:27;;;;;;;0.80;0.40;;;;;;;;;;5033026;28;20072;-71
2022/01/22 02:38:00;;;;;;;3.58;0.60;;;;;;;;;;5033012;28;20029;-60
2022/01/22 02:40:30;;;;;;;1.55;0.57;;;;;;;;;;5032664;28;20033;-76
2022/01/22 02:42:58;;;;;;;2.90;0.57;;;;;;;;;;5032804;28;20034;-62
2022/01/22 02:45:24;;;;;;;1.00;0.50;;;;;;;;;;5028266;28;20037;-70
2022/01/22 02:47:51;;;;;;;8.55;0.70;;;;;;;;;;5032023;28;20022;-63
2022/01/22 02:50:18;;;;;;;2.28;0.60;;;;;;;;;;5032845;28;20688;-66
2022/01/22 02:52:44;;;;;;;4.50;0.65;;;;;;;;;;5032642;28;20029;-67
2022/01/22 02:55:12;;;;;;;5.18;0.57;;;;;;;;;;5032537;28;20038;-64
2022/01/22 02:57:40;;;;;;;4.03;0.73;;;;;;;;;;5032790;28;20021;-62
2022/01/22 03:00:08;;;;;;;2.67;0.63;;;;;;;;;;5026759;28;20499;-67
2022/01/22 03:02:34;;;;;;;3.83;0.70;;;;;;;;;;5029936;28;20041;-69
2022/01/22 03:05:03;;;;;;;3.28;0.65;;;;;;;;;;5033028;28;20022;-66
2022/01/22 03:07:29;;;;;;;6.78;0.68;;;;;;;;;;5032566;28;20033;-64
2022/01/22 03:10:02;;;;;;;0.98;0.50;;;;;;;;;;5032773;28;20083;-77
2022/01/22 03:27:52;;;;;;;3.72;0.80;;;;;;;;;;5032558;28;20532;-60
2022/01/22 03:30:18;;;;;;;3.67;0.73;;;;;;;;;;5032403;28;20022;-74
2022/01/22 03:32:48;;;;;;;3.38;0.60;;;;;;;;;;5031492;28;20048;-65
2022/01/22 03:37:44;;;;;;;4.13;0.73;;;;;;;;;;5032075;28;20091;-71
2022/01/22 03:40:12;;;;;;;1.10;0.45;;;;;;;;;;5032172;28;20033;-76
2022/01/22 03:42:39;;;;;;;1.90;0.45;;;;;;;;;;5031836;28;20017;-75
2022/01/22 03:45:06;;;;;;;3.33;0.55;;;;;;;;;;5014248;28;20029;-63
2022/01/22 03:47:32;;;;;;;3.35;0.80;;;;;;;;;;5032089;28;20083;-63
2022/01/22 03:49:59;;;;;;;1.38;0.50;;;;;;;;;;5031069;28;20038;-60
2022/01/22 03:52:25;;;;;;;2.15;0.52;;;;;;;;;;5031759;28;20021;-64
2022/01/22 03:54:51;;;;;;;0.93;0.40;;;;;;;;;;5032297;28;20030;-63
2022/01/22 03:57:17;;;;;;;2.97;0.50;;;;;;;;;;5031929;28;20029;-69
2022/01/22 03:59:45;;;;;;;6.97;0.80;;;;;;;;;;5015074;28;20075;-74
2022/01/22 04:05:01;;;;;;;5.63;0.82;;;;;;;;;;5035536;28;20052;-67
2022/01/22 04:10:07;;;;;;;14.93;1.00;;;;;;;;;;5035570;28;20036;-65
2022/01/22 04:15:11;;;;;;;8.38;0.80;;;;;;;;;;5035580;28;20036;-62
2022/01/22 04:25:52;;;;;;;7.35;0.60;;;;;;;;;;5031097;28;20060;-76
2022/01/22 04:28:18;;;;;;;4.57;0.68;;;;;;;;;;5032642;28;20536;-62
2022/01/22 04:30:46;;;;;;;5.15;0.65;;;;;;;;;;5034643;28;20094;-74
2022/01/22 04:33:12;;;;;;;3.55;0.80;;;;;;;;;;5034709;28;20030;-63
2022/01/22 04:35:38;;;;;;;5.70;0.80;;;;;;;;;;5035150;28;20033;-79
2022/01/22 04:38:04;;;;;;;2.45;0.60;;;;;;;;;;5034610;28;20029;-67
2022/01/22 04:40:30;;;;;;;1.33;0.47;;;;;;;;;;5034268;28;20083;-68
2022/01/22 04:42:57;;;;;;;3.75;0.75;;;;;;;;;;5033921;28;20036;-67
2022/01/22 04:45:42;;;;;;;1.95;0.50;;;;;;;;;;5034900;28;20048;-77
2022/01/22 04:48:26;;;;;;;7.03;0.70;;;;;;;;;;5034572;28;20033;-64
2022/01/22 04:56:21;;;;;;;1.02;0.40;;;;;;;;;;5014927;28;20056;-64
2022/01/22 04:58:47;;;;;;;4.15;0.50;;;;;;;;;;5033052;28;20408;-61
2022/01/22 05:01:13;;;;;;;1.52;0.50;;;;;;;;;;5034145;28;20053;-62
2022/01/22 05:03:39;;;;;;;1.52;0.65;;;;;;;;;;5034697;28;20024;-77
2022/01/22 05:06:06;;;;;;;1.35;0.55;;;;;;;;;;5034541;28;20392;-61
2022/01/22 05:08:33;;;;;;;1.70;0.43;;;;;;;;;;5034191;28;20030;-72
2022/01/22 05:10:59;;;;;;;3.00;0.40;;;;;;;;;;5033783;28;20559;-60
2022/01/22 05:13:25;;;;;;;0.93;0.40;;;;;;;;;;5034420;28;20100;-69
2022/01/22 05:15:51;;;;;;;2.67;0.60;;;;;;;;;;5034150;28;20091;-69
2022/01/22 05:18:17;;;;;;;3.10;0.50;;;;;;;;;;5033832;28;20022;-75
2022/01/22 05:20:50;;;;;;;5.97;0.55;;;;;;;;;;5034277;28;20040;-61
2022/01/22 05:23:20;;;;;;;1.27;0.45;;;;;;;;;;5033998;28;20460;-62
2022/01/22 05:26:10;;;;;;;1.05;0.50;;;;;;;;;;5024405;28;20037;-59
2022/01/22 05:39:24;;;;;;;;;;;;;;;;;;5034559;28;20556;-60
2022/01/22 05:41:50;;;;;;;3.92;0.60;;;;;;;;;;5032874;28;20374;-73
2022/01/22 05:44:16;;;;;;;1.95;0.55;;;;;;;;;;5033454;28;20104;-62
2022/01/22 05:46:42;;;;;;;5.53;0.60;;;;;;;;;;5033784;28;20117;-60
2022/01/22 05:49:08;;;;;;;3.22;0.52;;;;;;;;;;5016028;28;20018;-69
2022/01/22 05:51:36;;;;;;;5.13;0.80;;;;;;;;;;5033117;28;20411;-74
2022/01/22 05:59:36;;;;;;;3.28;0.60;;;;;;;;;;5033659;28;20064;-65
2022/01/22 06:02:02;;;;;;;3.25;0.57;;;;;;;;;;5013640;28;20417;-73
2022/01/22 06:04:28;;;;;;;2.45;0.55;;;;;;;;;;4996100;28;20432;-63
2022/01/22 06:06:54;;;;;;;6.57;0.47;;;;;;;;;;4996024;28;20440;-73
2022/01/22 06:09:20;;;;;;;2.15;0.55;;;;;;;;;;5021956;28;20017;-69
2022/01/22 06:12:33;;;;;;;6.57;0.70;;;;;;;;;;5033178;28;20033;-65
2022/01/22 06:14:38;;;;;;;2.00;0.55;;;;;;;;;;5031060;28;20080;-64
2022/01/22 06:17:04;;;;;;;4.10;0.50;;;;;;;;;;5032632;28;20064;-77
2022/01/22 06:19:30;;;;;;;3.15;0.60;;;;;;;;;;5033212;28;20026;-72
2022/01/22 06:21:56;;;;;;;4.93;0.63;;;;;;;;;;5033687;28;20032;-72
2022/01/22 06:24:23;;;;;;;1.45;0.50;;;;;;;;;;5033256;28;20083;-80
2022/01/22 06:26:49;;;;;;;5.18;0.77;;;;;;;;;;5032710;28;20033;-70
2022/01/22 06:29:15;;;;;;;3.28;0.68;;;;;;;;;;5033475;28;20093;-67
2022/01/22 06:31:41;;;;;;;8.48;0.70;;;;;;;;;;5031662;28;20033;-72
2022/01/22 06:34:08;;;;;;;5.10;0.70;;;;;;;;;;5015082;28;20469;-71
2022/01/22 06:36:35;;;;;;;2.42;0.80;;;;;;;;;;5033081;28;20396;-71
2022/01/22 06:39:16;;;;;;;2.45;0.60;;;;;;;;;;5031892;28;20017;-70
2022/01/22 06:41:46;;;;;;;6.55;0.68;;;;;;;;;;5032551;28;20095;-74
2022/01/22 06:44:18;;;;;;;1.23;0.50;;;;;;;;;;5032259;28;20022;-63
2022/01/22 06:46:45;;;;;;;3.33;0.75;;;;;;;;;;5032498;28;20112;-62
2022/01/22 06:49:12;;;;;;;4.55;0.70;;;;;;;;;;5031391;28;20052;-64
2022/01/22 06:51:38;;;;;;;11.02;0.80;;;;;;;;;;5029285;28;20029;-76
2022/01/22 06:54:05;;;;;;;8.40;1.05;;;;;;;;;;5032343;28;20546;-68
2022/01/22 06:56:31;;;;;;;9.05;0.88;;;;;;;;;;5030965;28;20055;-63
2022/01/22 06:58:58;;;;;;;7.38;1.20;;;;;;;;;;5030470;28;20067;-66
2022/01/22 07:01:25;;;;;;;11.40;0.93;;;;;;;;;;5030766;28;20048;-62
2022/01/22 07:03:51;;;;;;;19.75;1.17;;;;;;;;;;5031272;28;20057;-63
2022/01/22 07:06:17;;;;;;;9.35;1.17;;;;;;;;;;5029843;28;20052;-70
2022/01/22 07:08:43;;;;;;;4.28;0.98;;;;;;;;;;5030935;28;20013;-73
2022/01/22 07:11:09;;;;;;;7.68;1.10;;;;;;;;;;5030493;28;20030;-74
2022/01/22 07:13:35;;;;;;;13.93;1.20;;;;;;;;;;5030940;28;20025;-65
2022/01/22 07:16:01;;;;;;;8.73;1.10;;;;;;;;;;5030976;28;20148;-68
2022/01/22 07:18:29;;;;;;;4.45;1.00;;;;;;;;;;5030912;28;20025;-69
2022/01/22 07:20:55;;;;;;;4.53;0.98;;;;;;;;;;5013005;28;20133;-75
2022/01/22 07:26:03;;;;;;;16.60;1.27;;;;;;;;;;5034170;28;20025;-77
2022/01/22 07:28:29;;;;;;;13.88;0.98;;;;;;;;;;5035509;28;20028;-73
2022/01/22 07:30:55;;;;;;;16.58;1.00;;;;;;;;;;5034388;28;20075;-75
2022/01/22 07:33:21;;;;;;;3.38;1.10;;;;;;;;;;5034217;28;20476;-68
2022/01/22 07:35:48;;;;;;;11.57;1.10;;;;;;;;;;5036599;28;20136;-65
2022/01/22 07:38:14;;;;;;;4.95;0.90;;;;;;;;;;5018758;28;20021;-64
2022/01/22 07:40:40;;;;;;;4.78;0.82;;;;;;;;;;5033872;28;20056;-70
2022/01/22 07:43:06;;;;;;;4.82;0.93;;;;;;;;;;5038146;28;20060;-74
2022/01/22 07:45:32;;;;;;;8.63;1.33;;;;;;;;;;5038560;28;20021;-77
2022/01/22 07:47:58;;;;;;;5.60;1.08;;;;;;;;;;5037825;28;20095;-71
2022/01/22 07:50:24;;;;;;;6.78;1.00;;;;;;;;;;5036812;28;20017;-71
2022/01/22 07:52:50;;;;;;;6.07;0.90;;;;;;;;;;5038168;28;20025;-81
2022/01/22 07:55:19;;;;;;;2.45;0.80;;;;;;;;;;5037653;28;20044;-79
2022/01/22 07:57:45;;;;;;;3.90;0.80;;;;;;;;;;5019172;28;20018;-77
2022/01/22 08:00:11;;;;;;;2.55;0.85;;;;;;;;;;5037470;28;20048;-78
2022/01/22 08:02:38;;;;;;;4.07;1.08;;;;;;;;;;5019173;28;20026;-72
2022/01/22 08:05:05;;;;;;;10.40;1.13;;;;;;;;;;5037231;28;20071;-69
2022/01/22 08:07:31;;;;;;;8.73;1.00;;;;;;;;;;5042532;28;20033;-72
2022/01/22 08:09:58;;;;;;;2.80;0.88;;;;;;;;;;5020750;28;20116;-74
2022/01/22 08:12:24;;;;;;;2.15;1.00;;;;;;;;;;5039142;28;20072;-70
2022/01/22 08:14:50;;;;;;;4.47;0.90;;;;;;;;;;5035559;28;20141;-69
2022/01/22 08:17:17;;;;;;;5.55;0.90;;;;;;;;;;5038399;28;20033;-68
2022/01/22 08:19:43;;;;;;;3.50;1.05;;;;;;;;;;5038338;28;20071;-66
2022/01/22 08:22:09;;;;;;;3.10;1.15;;;;;;;;;;5019316;28;20467;-64
2022/01/22 08:24:35;;;;;;;2.10;0.93;;;;;;;;;;5037282;28;20464;-72
2022/01/22 08:27:21;;;;;;;3.17;0.77;;;;;;;;;;5037729;28;20033;-66
2022/01/22 08:29:47;;;;;;;4.03;1.02;;;;;;;;;;5034915;28;20093;-68
2022/01/22 08:37:27;;;;;;;5.22;1.20;;;;;;;;;;5031658;28;20079;-67
2022/01/22 08:39:53;;;;;;;3.60;1.05;;;;;;;;;;5018767;28;20381;-69
2022/01/22 08:42:22;;;;;;;16.75;1.23;;;;;;;;;;5018940;28;20362;-69
2022/01/22 08:44:48;;;;;;;3.30;1.00;;;;;;;;;;5018929;28;20449;-74
2022/01/22 08:47:15;;;;;;;5.40;1.20;;;;;;;;;;5034925;28;20029;-67
2022/01/22 08:49:41;;;;;;;2.40;0.88;;;;;;;;;;5034960;28;20021;-72
2022/01/22 08:52:11;;;;;;;3.95;0.90;;;;;;;;;;5034094;28;20480;-71
2022/01/22 08:54:38;;;;;;;4.53;0.95;;;;;;;;;;5034818;28;20026;-71
2022/01/22 08:57:04;;;;;;;5.60;1.23;;;;;;;;;;5016762;28;20473;-77
2022/01/22 08:59:30;;;;;;;9.05;1.02;;;;;;;;;;5034241;28;20052;-67
2022/01/22 09:01:56;;;;;;;5.35;0.90;;;;;;;;;;5034305;28;20208;-63
2022/01/22 09:04:22;;;;;;;5.50;1.02;;;;;;;;;;5034987;28;20047;-70
2022/01/22 09:06:48;;;;;;;9.52;0.88;;;;;;;;;;5032597;28;20033;-66
2022/01/22 09:09:14;;;;;;;12.00;1.33;;;;;;;;;;5015579;28;20464;-62
2022/01/22 09:11:41;;;;;;;11.43;1.30;;;;;;;;;;5032955;28;20033;-69
2022/01/22 09:14:09;;;;;;;4.57;1.02;;;;;;;;;;5016268;22;20125;-59
2022/01/22 09:16:35;;;;;;;9.25;1.23;;;;;;;;;;4958711;28;20045;-59
2022/01/22 09:19:06;;;;;;;5.32;1.00;;;;;;;;;;4956830;28;20019;-59
2022/01/22 09:21:33;;;;;;;15.20;1.00;;;;;;;;;;4974754;28;20466;-59
2022/01/22 09:23:59;;;;;;;4.65;1.13;;;;;;;;;;4974914;28;20032;-59
2022/01/22 09:26:26;;;;;;;8.30;1.33;;;;;;;;;;4974908;28;20022;-59
2022/01/22 09:28:52;;;;;;;6.97;1.02;;;;;;;;;;4974751;28;20031;-59
2022/01/22 09:31:18;;;;;;;14.68;1.13;;;;;;;;;;4973423;28;20118;-60
2022/01/22 09:33:44;;;;;;;10.85;1.33;;;;;;;;;;4974508;28;20054;-59
2022/01/22 09:36:10;;;;;;;6.43;1.20;;;;;;;;;;4974745;28;20077;-59
2022/01/22 09:38:36;;;;;;;7.75;1.17;;;;;;;;;;4973282;28;20055;-62
2022/01/22 09:41:03;;;;;;;3.65;1.05;;;;;;;;;;4954648;28;20041;-61
2022/01/22 09:43:29;;;;;;;7.40;0.82;;;;;;;;;;4954580;28;20035;-60
2022/01/22 09:45:55;;;;;;;8.43;1.00;;;;;;;;;;4954908;29;20027;-59
2022/01/22 09:48:21;;;;;;;3.10;0.80;;;;;;;;;;4962108;28;20055;-61
2022/01/22 09:50:47;;;;;;;7.13;0.98;;;;;;;;;;4973968;28;20445;-59
2022/01/22 09:53:13;;;;;;;3.05;0.95;;;;;;;;;;4973873;28;20086;-59
2022/01/22 09:55:39;;;;;;;6.82;1.02;;;;;;;;;;4973862;28;20042;-62
2022/01/22 09:58:05;;;;;;;5.57;0.90;;;;;;;;;;4973598;28;20031;-59
2022/01/22 10:00:31;;;;;;;5.55;0.80;;;;;;;;;;4973990;28;20034;-60
2022/01/22 10:02:58;;;;;;;2.05;0.90;;;;;;;;;;4970292;28;20065;-59
2022/01/22 10:05:33;;;;;;;6.28;1.05;;;;;;;;;;4974000;28;20034;-59
2022/01/22 10:08:18;;;;;;;3.22;1.13;;;;;;;;;;4973898;28;20121;-59
2022/01/22 10:10:44;;;;;;;9.10;1.17;;;;;;;;;;4973874;28;20741;-59
2022/01/22 10:13:10;;;;;;;6.68;1.20;;;;;;;;;;4973601;28;20035;-61
2022/01/22 10:15:38;;;;;;;6.80;1.25;;;;;;;;;;4974060;28;20338;-60
2022/01/22 10:18:04;;;;;;;4.90;1.05;;;;;;;;;;4973329;28;20077;-58
2022/01/22 10:20:32;;;;;;;7.38;1.13;;;;;;;;;;4973495;28;20026;-59
2022/01/22 10:23:03;;;;;;;7.57;1.20;;;;;;;;;;4973570;28;20030;-59
2022/01/22 10:25:32;;;;;;;12.40;1.70;;;;;;;;;;4956222;28;20019;-62
2022/01/22 10:28:01;;;;;;;4.57;1.77;;;;;;;;;;4973554;28;20265;-62
2022/01/22 10:30:35;;;;;;;6.05;1.65;;;;;;;;;;4973678;28;20027;-60
2022/01/22 10:33:18;;;;;;;9.52;2.10;;;;;;;;;;4973339;28;20035;-59
2022/01/22 10:35:44;;;;;;;;;;;;;;;;;;4973313;28;20389;-58
2022/01/22 10:38:10;;;;;;;8.43;2.13;;;;;;;;;;4973491;28;19913;-59
2022/01/22 10:40:38;;;;;;;7.88;2.20;;;;;;;;;;4956381;28;20058;-59
2022/01/22 10:43:21;;;;;;;15.80;2.20;;;;;;;;;;4973315;28;20027;-61
2022/01/22 10:46:03;;;;;;;9.02;1.92;;;;;;;;;;4973521;28;20466;-59
2022/01/22 10:48:30;;;;;;;8.65;2.13;;;;;;;;;;4973446;28;20042;-59
2022/01/22 10:51:15;;;;;;;7.13;2.85;;;;;;;;;;4973462;28;20198;-61
2022/01/22 10:53:49;;;;;;;8.48;2.53;;;;;;;;;;4971289;28;20022;-60
2022/01/22 10:56:17;;;;;;;8.55;2.25;;;;;;;;;;4983513;28;20096;-60
2022/01/22 10:58:54;;;;;;;8.23;2.67;;;;;;;;;;4992848;28;20053;-58
2022/01/22 11:01:21;;;;;;;9.15;2.50;;;;;;;;;;4992684;28;20034;-58
2022/01/22 11:03:47;;;;;;;12.85;3.15;;;;;;;;;;4992703;28;20038;-59
2022/01/22 11:06:26;;;;;;;11.07;2.55;;;;;;;;;;4992569;28;20034;-59
2022/01/22 11:08:53;;;;;;;12.20;3.20;;;;;;;;;;4975149;28;20038;-59
2022/01/22 11:11:19;;;;;;;9.45;3.15;;;;;;;;;;4977055;28;20038;-58
2022/01/22 11:13:45;;;;;;;7.85;2.80;;;;;;;;;;4976822;28;20389;-59
2022/01/22 11:16:13;;;;;;;9.35;3.20;;;;;;;;;;4976800;28;20046;-59
2022/01/22 11:18:40;;;;;;;13.50;3.28;;;;;;;;;;4977231;28;20469;-59
2022/01/22 11:21:06;;;;;;;6.00;2.50;;;;;;;;;;4976863;28;20037;-59
2022/01/22 11:23:34;;;;;;;10.40;3.00;;;;;;;;;;4976168;28;20023;-59
2022/01/22 11:26:01;;;;;;;6.60;2.63;;;;;;;;;;4976861;28;20113;-59
2022/01/22 11:28:27;;;;;;;9.18;2.95;;;;;;;;;;4976931;28;20113;-60
2022/01/22 11:30:54;;;;;;;11.13;2.72;;;;;;;;;;4959416;28;20037;-59
2022/01/22 11:33:21;;;;;;;16.20;3.00;;;;;;;;;;4959271;28;20026;-59
2022/01/22 11:35:50;;;;;;;10.68;2.90;;;;;;;;;;4959274;28;20043;-59
2022/01/22 11:38:17;;;;;;;20.52;3.00;;;;;;;;;;4977078;28;20049;-61
2022/01/22 11:41:01;;;;;;;14.65;2.97;;;;;;;;;;4969939;28;20571;-61
2022/01/22 11:43:50;;;;;;;8.45;2.35;;;;;;;;;;4976563;28;20047;-60
2022/01/22 11:46:26;;;;;;;6.50;2.10;;;;;;;;;;4957588;29;20098;-60
2022/01/22 11:49:11;;;;;;;9.18;2.70;;;;;;;;;;4957553;29;20139;-61
2022/01/22 11:51:37;;;;;;;9.05;2.42;;;;;;;;;;4956894;28;20031;-60
2022/01/22 11:54:04;;;;;;;8.60;2.40;;;;;;;;;;4957347;28;20027;-59
2022/01/22 11:56:45;;;;;;;13.40;2.67;;;;;;;;;;4956687;28;20043;-59
2022/01/22 11:59:28;;;;;;;12.85;2.13;;;;;;;;;;4976316;28;20027;-59
2022/01/22 12:01:56;;;;;;;12.80;2.75;;;;;;;;;;4976512;28;20031;-59
2022/01/22 12:04:40;;;;;;;7.80;2.22;;;;;;;;;;4976488;28;20031;-60
2022/01/22 12:07:07;;;;;;;10.00;1.90;;;;;;;;;;4976476;28;20027;-59
2022/01/22 12:10:05;;;;;;;7.60;1.95;;;;;;;;;;4976394;28;20030;-61
2022/01/22 12:15:11;;;;;;;4.22;1.65;;;;;;;;;;4975896;28;19924;-58
2022/01/22 12:17:51;;;;;;;10.93;1.60;;;;;;;;;;4976339;28;20462;-58
2022/01/22 12:23:02;;;;;;;9.57;2.30;;;;;;;;;;4976047;28;20065;-62
2022/01/22 12:25:30;;;;;;;6.13;1.75;;;;;;;;;;4975913;28;20351;-60
2022/01/22 12:27:57;;;;;;;11.70;1.40;;;;;;;;;;4957420;28;20462;-59
2022/01/22 12:30:55;;;;;;;4.65;1.50;;;;;;;;;;4975755;28;20030;-63
2022/01/22 12:33:30;;;;;;;2.97;1.30;;;;;;;;;;4944483;29;20063;-62
2022/01/22 12:36:08;;;;;;;10.05;1.55;;;;;;;;;;4956343;28;20094;-59
2022/01/22 12:41:15;;;;;;;5.72;1.50;;;;;;;;;;4956590;29;20780;-59
2022/01/22 12:43:44;;;;;;;4.30;1.20;;;;;;;;;;4940641;28;20082;-59
2022/01/22 12:46:10;;;;;;;11.93;1.88;;;;;;;;;;4974618;28;20175;-62
2022/01/22 12:48:38;;;;;;;3.63;1.25;;;;;;;;;;4975452;28;20048;-61
2022/01/22 12:51:05;;;;;;;4.82;1.33;;;;;;;;;;4975130;28;20545;-63
2022/01/22 12:53:32;;;;;;;2.95;1.25;;;;;;;;;;4975380;28;20024;-60
2022/01/22 12:58:32;;;;;;;6.43;1.50;;;;;;;;;;4975677;28;20066;-58
2022/01/22 13:01:11;;;;;;;7.97;1.30;;;;;;;;;;4975580;28;20023;-61
2022/01/22 13:03:39;;;;;;;6.68;1.40;;;;;;;;;;4974674;28;20026;-60
2022/01/22 13:06:05;;;;;;;3.30;1.20;;;;;;;;;;4957811;28;20090;-58
2022/01/22 13:08:32;;;;;;;6.38;1.25;;;;;;;;;;4975375;28;20025;-61
2022/01/22 13:11:00;;;;;;;5.55;1.40;;;;;;;;;;4986018;28;20050;-58
2022/01/22 13:13:26;;;;;;;3.90;1.20;;;;;;;;;;4994463;28;20026;-61
2022/01/22 13:16:06;;;;;;;5.93;1.30;;;;;;;;;;4975912;28;20097;-60
2022/01/22 13:18:43;;;;;;;4.72;1.30;;;;;;;;;;4953897;28;20038;-60
2022/01/22 13:21:10;;;;;;;4.82;1.30;;;;;;;;;;4974740;28;20034;-60
2022/01/22 13:23:37;;;;;;;9.07;1.25;;;;;;;;;;4974285;28;20039;-64
2022/01/22 13:26:03;;;;;;;6.07;1.00;;;;;;;;;;4973980;28;20030;-59
2022/01/22 13:28:32;;;;;;;9.18;1.10;;;;;;;;;;4974205;28;20117;-60
2022/01/22 13:31:03;;;;;;;6.55;1.25;;;;;;;;;;4974435;28;20027;-59
2022/01/22 13:36:12;;;;;;;8.68;1.20;;;;;;;;;;4974727;28;20093;-58
2022/01/22 13:49:30;;;;;;;3.55;1.60;;;;;;;;;;4978833;28;20057;-61
2022/01/22 13:51:58;;;;;;;13.20;2.00;;;;;;;;;;4974306;28;20037;-59
2022/01/22 13:54:32;;;;;;;15.30;2.05;;;;;;;;;;4974604;28;20037;-62
2022/01/22 13:57:00;;;;;;;7.43;1.98;;;;;;;;;;4974551;28;20035;-62
2022/01/22 13:59:28;;;;;;;5.43;1.95;;;;;;;;;;4957032;28;20034;-62
2022/01/22 14:02:09;;;;;;;7.10;1.98;;;;;;;;;;4977552;28;20019;-60
2022/01/22 14:04:58;;;;;;;7.60;1.83;;;;;;;;;;4968257;28;20482;-63
2022/01/22 14:07:31;;;;;;;7.32;1.85;;;;;;;;;;4971765;28;20039;-61
2022/01/22 14:10:00;;;;;;;4.93;1.80;;;;;;;;;;4977036;28;20034;-60
2022/01/22 14:12:30;;;;;;;9.75;2.05;;;;;;;;;;4993559;28;20023;-60
2022/01/22 14:15:13;;;;;;;5.60;1.88;;;;;;;;;;4969246;28;20047;-63
2022/01/22 14:18:08;;;;;;;10.77;2.05;;;;;;;;;;4979143;28;20076;-61
2022/01/22 14:20:35;;;;;;;6.53;1.85;;;;;;;;;;4993490;28;20022;-60
2022/01/22 14:23:06;;;;;;;5.80;1.95;;;;;;;;;;4975249;28;20019;-61
2022/01/22 14:25:55;;;;;;;4.88;1.60;;;;;;;;;;4974074;28;20030;-60
2022/01/22 14:28:23;;;;;;;4.82;1.67;;;;;;;;;;4959055;28;20018;-62
2022/01/22 14:30:49;;;;;;;7.70;1.92;;;;;;;;;;4973677;28;20022;-60
2022/01/22 14:33:17;;;;;;;11.20;1.80;;;;;;;;;;4973877;28;20023;-61
2022/01/22 14:35:45;;;;;;;4.20;1.70;;;;;;;;;;4973872;28;20039;-60
2022/01/22 14:38:20;;;;;;;2.92;1.52;;;;;;;;;;4974050;28;20077;-61
2022/01/22 14:44:01;;;;;;;8.35;1.88;;;;;;;;;;4973111;28;20073;-61
2022/01/22 14:46:39;;;;;;;5.68;1.80;;;;;;;;;;4973685;28;20533;-60
2022/01/22 14:49:05;;;;;;;6.60;1.85;;;;;;;;;;4973841;28;20027;-62
2022/01/22 14:51:31;;;;;;;3.20;1.52;;;;;;;;;;4973579;28;20034;-60
2022/01/22 14:53:56;;;;;;;3.97;1.95;;;;;;;;;;4973707;28;20081;-60
2022/01/22 14:56:23;;;;;;;10.77;1.83;;;;;;;;;;4968745;28;20043;-66
2022/01/22 14:58:49;;;;;;;3.75;1.55;;;;;;;;;;4976155;28;20485;-62
2022/01/22 15:01:15;;;;;;;4.05;1.92;;;;;;;;;;4975876;28;20037;-59
2022/01/22 15:03:41;;;;;;;2.95;1.63;;;;;;;;;;4990927;28;20034;-66
2022/01/22 15:06:07;;;;;;;5.38;2.50;;;;;;;;;;4992808;28;20030;-62
2022/01/22 15:08:33;;;;;;;6.10;1.85;;;;;;;;;;4992374;28;20026;-59
2022/01/22 15:10:59;;;;;;;4.90;1.92;;;;;;;;;;4974594;28;20081;-61
2022/01/22 15:13:25;;;;;;;6.80;2.08;;;;;;;;;;4975133;28;20043;-61
2022/01/22 15:15:58;;;;;;;5.38;1.92;;;;;;;;;;4973216;28;20089;-59
2022/01/22 15:18:51;;;;;;;3.22;1.75;;;;;;;;;;4980822;28;20038;-59
2022/01/22 15:21:17;;;;;;;4.47;1.80;;;;;;;;;;4975767;28;20026;-63
2022/01/22 15:23:43;;;;;;;12.45;2.03;;;;;;;;;;4978302;28;20033;-59
2022/01/22 15:26:09;;;;;;;41.13;2.72;;;;;;;;;;4969391;28;20027;-59
2022/01/22 15:28:43;;;;;;;3.33;1.67;;;;;;;;;;4954169;28;20110;-65
2022/01/22 15:31:17;;;;;;;4.90;1.85;;;;;;;;;;4961866;28;20034;-63
2022/01/22 15:33:54;;;;;;;4.30;1.80;;;;;;;;;;4971916;28;20015;-60
2022/01/22 15:36:20;;;;;;;8.55;2.10;;;;;;;;;;4972750;28;20403;-59
2022/01/22 15:38:46;;;;;;;4.68;1.80;;;;;;;;;;4973551;28;20058;-61
2022/01/22 15:41:11;;;;;;;7.28;1.92;;;;;;;;;;4973446;28;20379;-59
2022/01/22 15:43:37;;;;;;;3.88;1.80;;;;;;;;;;4972925;28;20030;-59
2022/01/22 15:46:03;;;;;;;4.88;1.83;;;;;;;;;;4972446;28;20429;-56
2022/01/22 15:48:30;;;;;;;21.65;1.80;;;;;;;;;;4962315;28;20042;-61
2022/01/22 15:50:56;;;;;;;3.95;1.80;;;;;;;;;;4972036;28;20027;-58
2022/01/22 15:53:22;;;;;;;10.60;2.42;;;;;;;;;;4972268;28;20023;-59
2022/01/22 15:55:49;;;;;;;15.32;1.90;;;;;;;;;;4974015;28;20070;-60
2022/01/22 15:58:15;;;;;;;22.85;2.25;;;;;;;;;;4952479;28;20052;-59
2022/01/22 16:00:42;;;;;;;12.65;2.33;;;;;;;;;;4982973;28;20551;-59
2022/01/22 16:03:09;;;;;;;5.72;2.22;;;;;;;;;;4980529;28;20034;-58
2022/01/22 16:05:35;;;;;;;9.98;2.10;;;;;;;;;;4985140;28;20034;-63
2022/01/22 16:08:01;;;;;;;7.55;2.15;;;;;;;;;;4991897;28;20038;-59
2022/01/22 16:10:27;;;;;;;12.40;2.20;;;;;;;;;;4970902;28;20150;-65
2022/01/22 16:12:54;;;;;;;4.97;2.30;;;;;;;;;;4981020;28;20031;-62
2022/01/22 16:15:20;;;;;;;12.90;2.92;;;;;;;;;;4962423;28;20394;-65
2022/01/22 16:17:46;;;;;;;10.27;2.95;;;;;;;;;;4970855;28;20023;-59
2022/01/22 16:20:12;;;;;;;4.18;1.95;;;;;;;;;;4970988;28;20019;-60
2022/01/22 16:22:38;;;;;;;5.35;1.98;;;;;;;;;;4968616;28;20121;-63
2022/01/22 16:25:05;;;;;;;7.07;2.33;;;;;;;;;;4964909;28;20078;-66
2022/01/22 16:27:32;;;;;;;6.35;2.30;;;;;;;;;;4964198;28;20047;-64
2022/01/22 16:29:59;;;;;;;3.30;1.90;;;;;;;;;;4967764;28;20031;-61
2022/01/22 16:32:25;;;;;;;5.55;2.30;;;;;;;;;;4986787;28;20074;-58
2022/01/22 16:34:52;;;;;;;6.05;2.13;;;;;;;;;;4978646;28;20451;-59
2022/01/22 16:37:19;;;;;;;6.32;2.00;;;;;;;;;;4983453;28;20394;-64
2022/01/22 16:39:46;;;;;;;5.60;2.10;;;;;;;;;;4981560;28;20015;-60
2022/01/22 16:42:15;;;;;;;5.95;2.63;;;;;;;;;;4988467;28;20026;-60
2022/01/22 16:45:04;;;;;;;4.70;2.10;;;;;;;;;;4969717;28;20022;-61
2022/01/22 16:58:00;;;;;;;7.37;2.13;;;;;;;;;;4986260;28;20543;-60
2022/01/22 17:00:35;;;;;;;5.32;2.30;;;;;;;;;;4980560;28;20025;-58
2022/01/22 17:03:06;;;;;;;7.03;2.15;;;;;;;;;;4983889;28;20037;-62
2022/01/22 17:05:33;;;;;;;6.72;2.00;;;;;;;;;;4984250;28;20034;-62
2022/01/22 17:08:25;;;;;;;6.18;2.30;;;;;;;;;;4975917;28;20073;-60